sensor_id;sensor_type;location;lat;lon;timestamp;temperature;humidity
6335;DHT22;3200;48.204;11.576;2024-02-26T00:00:09;3.30;99.90
6335;DHT22;3200;48.204;11.576;2024-02-26T00:02:37;3.30;99.90
6335;DHT22;3200;48.204;11.576;2024-02-26T00:05:07;3.30;99.90
6335;DHT22;3200;48.204;11.576;2024-02-26T00:07:33;3.20;99.90
6335;DHT22;3200;48.204;11.576;2024-02-26T00:10:02;3.20;99.90
6335;DHT22;3200;48.204;11.576;2024-02-26T00:12:28;3.20;99.90
6335;DHT22;3200;48.204;11.576;2024-02-26T00:14:54;3.20;99.90
6335;DHT22;3200;48.204;11.576;2024-02-26T00:17:19;3.20;99.90
6335;DHT22;3200;48.204;11.576;2024-02-26T00:19:45;3.10;99.90
6335;DHT22;3200;48.204;11.576;2024-02-26T00:22:11;3.10;99.90
6335;DHT22;3200;48.204;11.576;2024-02-26T00:24:37;3.10;99.90
6335;DHT22;3200;48.204;11.576;2024-02-26T00:27:05;3.00;99.90
6335;DHT22;3200;48.204;11.576;2024-02-26T00:29:31;2.90;99.90
6335;DHT22;3200;48.204;11.576;2024-02-26T00:31:58;2.80;99.90
6335;DHT22;3200;48.204;11.576;2024-02-26T00:34:24;2.80;99.90
6335;DHT22;3200;48.204;11.576;2024-02-26T00:36:50;2.80;99.90
6335;DHT22;3200;48.204;11.576;2024-02-26T00:39:16;2.80;99.90
6335;DHT22;3200;48.204;11.576;2024-02-26T00:41:41;2.80;99.90
6335;DHT22;3200;48.204;11.576;2024-02-26T00:44:07;2.80;99.90
6335;DHT22;3200;48.204;11.576;2024-02-26T00:46:33;2.70;99.90
6335;DHT22;3200;48.204;11.576;2024-02-26T00:49:02;2.70;99.90
6335;DHT22;3200;48.204;11.576;2024-02-26T00:51:28;2.70;99.90
6335;DHT22;3200;48.204;11.576;2024-02-26T00:53:54;2.60;99.90
6335;DHT22;3200;48.204;11.576;2024-02-26T00:56:21;2.70;99.90
6335;DHT22;3200;48.204;11.576;2024-02-26T00:58:47;2.60;99.90
6335;DHT22;3200;48.204;11.576;2024-02-26T01:01:17;2.60;99.90
6335;DHT22;3200;48.204;11.576;2024-02-26T01:03:43;2.50;99.90
6335;DHT22;3200;48.204;11.576;2024-02-26T01:06:08;2.50;99.90
6335;DHT22;3200;48.204;11.576;2024-02-26T01:08:35;2.50;99.90
6335;DHT22;3200;48.204;11.576;2024-02-26T01:11:01;2.40;99.90
6335;DHT22;3200;48.204;11.576;2024-02-26T01:13:27;2.50;99.90
6335;DHT22;3200;48.204;11.576;2024-02-26T01:15:53;2.40;99.90
6335;DHT22;3200;48.204;11.576;2024-02-26T01:18:18;2.40;99.90
6335;DHT22;3200;48.204;11.576;2024-02-26T01:20:44;2.40;99.90
6335;DHT22;3200;48.204;11.576;2024-02-26T01:23:10;2.40;99.90
6335;DHT22;3200;48.204;11.576;2024-02-26T01:25:36;2.30;99.90
6335;DHT22;3200;48.204;11.576;2024-02-26T01:28:02;2.30;99.90
6335;DHT22;3200;48.204;11.576;2024-02-26T01:30:28;2.30;99.90
6335;DHT22;3200;48.204;11.576;2024-02-26T01:32:54;2.30;99.90
6335;DHT22;3200;48.204;11.576;2024-02-26T01:35:20;2.30;99.90
6335;DHT22;3200;48.204;11.576;2024-02-26T01:37:46;2.30;99.90
6335;DHT22;3200;48.204;11.576;2024-02-26T01:40:12;2.20;99.90
6335;DHT22;3200;48.204;11.576;2024-02-26T01:42:43;2.30;99.90
6335;DHT22;3200;48.204;11.576;2024-02-26T01:45:15;2.30;99.90
6335;DHT22;3200;48.204;11.576;2024-02-26T01:47:49;2.20;99.90
6335;DHT22;3200;48.204;11.576;2024-02-26T01:50:17;2.20;99.90
6335;DHT22;3200;48.204;11.576;2024-02-26T01:52:45;2.20;99.90
6335;DHT22;3200;48.204;11.576;2024-02-26T01:55:13;2.20;99.90
6335;DHT22;3200;48.204;11.576;2024-02-26T01:57:43;2.20;99.90
6335;DHT22;3200;48.204;11.576;2024-02-26T02:00:12;2.10;99.90
6335;DHT22;3200;48.204;11.576;2024-02-26T02:02:40;2.10;99.90
6335;DHT22;3200;48.204;11.576;2024-02-26T02:05:08;2.00;99.90
6335;DHT22;3200;48.204;11.576;2024-02-26T02:07:35;2.00;99.90
6335;DHT22;3200;48.204;11.576;2024-02-26T02:10:01;1.90;99.90
6335;DHT22;3200;48.204;11.576;2024-02-26T02:12:28;1.90;99.90
6335;DHT22;3200;48.204;11.576;2024-02-26T02:14:54;1.90;99.90
6335;DHT22;3200;48.204;11.576;2024-02-26T02:17:20;1.90;99.90
6335;DHT22;3200;48.204;11.576;2024-02-26T02:19:46;1.90;99.90
6335;DHT22;3200;48.204;11.576;2024-02-26T02:22:12;1.80;99.90
6335;DHT22;3200;48.204;11.576;2024-02-26T02:24:37;1.80;99.90
6335;DHT22;3200;48.204;11.576;2024-02-26T02:27:03;1.70;99.90
6335;DHT22;3200;48.204;11.576;2024-02-26T02:29:30;1.80;99.90
6335;DHT22;3200;48.204;11.576;2024-02-26T02:31:56;1.80;99.90
6335;DHT22;3200;48.204;11.576;2024-02-26T02:34:23;1.70;99.90
6335;DHT22;3200;48.204;11.576;2024-02-26T02:36:51;1.70;99.90
6335;DHT22;3200;48.204;11.576;2024-02-26T02:39:18;1.70;99.90
6335;DHT22;3200;48.204;11.576;2024-02-26T02:41:44;1.70;99.90
6335;DHT22;3200;48.204;11.576;2024-02-26T02:44:10;1.70;99.90
6335;DHT22;3200;48.204;11.576;2024-02-26T02:46:35;1.80;99.90
6335;DHT22;3200;48.204;11.576;2024-02-26T02:49:02;1.80;99.90
6335;DHT22;3200;48.204;11.576;2024-02-26T02:51:28;1.80;99.90
6335;DHT22;3200;48.204;11.576;2024-02-26T02:53:54;1.80;99.90
6335;DHT22;3200;48.204;11.576;2024-02-26T02:56:19;1.80;99.90
6335;DHT22;3200;48.204;11.576;2024-02-26T02:58:45;1.80;99.90
6335;DHT22;3200;48.204;11.576;2024-02-26T03:01:13;1.80;99.90
6335;DHT22;3200;48.204;11.576;2024-02-26T03:03:39;1.80;99.90
6335;DHT22;3200;48.204;11.576;2024-02-26T03:06:05;1.80;99.90
6335;DHT22;3200;48.204;11.576;2024-02-26T03:08:31;1.70;99.90
6335;DHT22;3200;48.204;11.576;2024-02-26T03:10:58;1.70;99.90
6335;DHT22;3200;48.204;11.576;2024-02-26T03:13:25;1.80;99.90
6335;DHT22;3200;48.204;11.576;2024-02-26T03:15:50;1.80;99.90
6335;DHT22;3200;48.204;11.576;2024-02-26T03:18:16;1.70;99.90
6335;DHT22;3200;48.204;11.576;2024-02-26T03:20:42;1.80;99.90
6335;DHT22;3200;48.204;11.576;2024-02-26T03:23:08;1.80;99.90
6335;DHT22;3200;48.204;11.576;2024-02-26T03:25:37;1.70;99.90
6335;DHT22;3200;48.204;11.576;2024-02-26T03:28:03;1.70;99.90
6335;DHT22;3200;48.204;11.576;2024-02-26T03:30:29;1.70;99.90
6335;DHT22;3200;48.204;11.576;2024-02-26T03:32:55;1.80;99.90
6335;DHT22;3200;48.204;11.576;2024-02-26T03:35:20;1.90;99.90
6335;DHT22;3200;48.204;11.576;2024-02-26T03:37:46;1.90;99.90
6335;DHT22;3200;48.204;11.576;2024-02-26T03:40:13;1.90;99.90
6335;DHT22;3200;48.204;11.576;2024-02-26T03:42:40;1.80;99.90
6335;DHT22;3200;48.204;11.576;2024-02-26T03:45:06;1.80;99.90
6335;DHT22;3200;48.204;11.576;2024-02-26T03:47:32;1.80;99.90
6335;DHT22;3200;48.204;11.576;2024-02-26T03:49:58;1.70;99.90
6335;DHT22;3200;48.204;11.576;2024-02-26T03:52:24;1.70;99.90
6335;DHT22;3200;48.204;11.576;2024-02-26T03:54:50;1.70;99.90
6335;DHT22;3200;48.204;11.576;2024-02-26T03:57:16;1.80;99.90
6335;DHT22;3200;48.204;11.576;2024-02-26T03:59:42;1.80;99.90
6335;DHT22;3200;48.204;11.576;2024-02-26T04:02:07;1.80;99.90
6335;DHT22;3200;48.204;11.576;2024-02-26T04:04:35;1.80;99.90
6335;DHT22;3200;48.204;11.576;2024-02-26T04:07:00;1.80;99.90
6335;DHT22;3200;48.204;11.576;2024-02-26T04:09:26;1.80;99.90
6335;DHT22;3200;48.204;11.576;2024-02-26T04:11:52;1.90;99.90
6335;DHT22;3200;48.204;11.576;2024-02-26T04:14:18;1.90;99.90
6335;DHT22;3200;48.204;11.576;2024-02-26T04:16:44;1.80;99.90
6335;DHT22;3200;48.204;11.576;2024-02-26T04:19:10;1.90;99.90
6335;DHT22;3200;48.204;11.576;2024-02-26T04:21:35;1.90;99.90
6335;DHT22;3200;48.204;11.576;2024-02-26T04:24:01;1.90;99.90
6335;DHT22;3200;48.204;11.576;2024-02-26T04:26:29;1.90;99.90
6335;DHT22;3200;48.204;11.576;2024-02-26T04:28:55;1.90;99.90
6335;DHT22;3200;48.204;11.576;2024-02-26T04:31:21;1.90;99.90
6335;DHT22;3200;48.204;11.576;2024-02-26T04:33:47;1.90;99.90
6335;DHT22;3200;48.204;11.576;2024-02-26T04:36:14;1.90;99.90
6335;DHT22;3200;48.204;11.576;2024-02-26T04:38:44;1.90;99.90
6335;DHT22;3200;48.204;11.576;2024-02-26T04:41:10;1.90;99.90
6335;DHT22;3200;48.204;11.576;2024-02-26T04:43:36;2.00;99.90
6335;DHT22;3200;48.204;11.576;2024-02-26T04:46:07;1.90;99.90
6335;DHT22;3200;48.204;11.576;2024-02-26T04:48:34;1.90;99.90
6335;DHT22;3200;48.204;11.576;2024-02-26T04:51:01;1.90;99.90
6335;DHT22;3200;48.204;11.576;2024-02-26T04:53:27;1.80;99.90
6335;DHT22;3200;48.204;11.576;2024-02-26T04:55:53;1.90;99.90
6335;DHT22;3200;48.204;11.576;2024-02-26T04:58:19;1.80;99.90
6335;DHT22;3200;48.204;11.576;2024-02-26T05:00:44;1.80;99.90
6335;DHT22;3200;48.204;11.576;2024-02-26T05:03:10;1.80;99.90
6335;DHT22;3200;48.204;11.576;2024-02-26T05:05:43;1.90;99.90
6335;DHT22;3200;48.204;11.576;2024-02-26T05:08:09;2.00;99.90
6335;DHT22;3200;48.204;11.576;2024-02-26T05:10:35;2.10;99.90
6335;DHT22;3200;48.204;11.576;2024-02-26T05:13:05;2.30;99.90
6335;DHT22;3200;48.204;11.576;2024-02-26T05:15:31;2.20;99.90
6335;DHT22;3200;48.204;11.576;2024-02-26T05:17:57;1.90;99.90
6335;DHT22;3200;48.204;11.576;2024-02-26T05:20:23;2.00;99.90
6335;DHT22;3200;48.204;11.576;2024-02-26T05:22:49;1.90;99.90
6335;DHT22;3200;48.204;11.576;2024-02-26T05:25:16;2.20;99.90
6335;DHT22;3200;48.204;11.576;2024-02-26T05:27:43;2.00;99.90
6335;DHT22;3200;48.204;11.576;2024-02-26T05:30:10;2.10;99.90
6335;DHT22;3200;48.204;11.576;2024-02-26T05:32:37;2.10;99.90
6335;DHT22;3200;48.204;11.576;2024-02-26T05:35:03;2.10;99.90
6335;DHT22;3200;48.204;11.576;2024-02-26T05:37:30;2.00;99.90
6335;DHT22;3200;48.204;11.576;2024-02-26T05:39:56;2.00;99.90
6335;DHT22;3200;48.204;11.576;2024-02-26T05:42:21;2.10;99.90
6335;DHT22;3200;48.204;11.576;2024-02-26T05:44:47;2.30;99.90
6335;DHT22;3200;48.204;11.576;2024-02-26T05:47:13;2.30;99.90
6335;DHT22;3200;48.204;11.576;2024-02-26T05:49:39;2.40;99.90
6335;DHT22;3200;48.204;11.576;2024-02-26T05:52:05;2.50;99.90
6335;DHT22;3200;48.204;11.576;2024-02-26T05:54:31;2.50;99.90
6335;DHT22;3200;48.204;11.576;2024-02-26T05:56:57;2.50;99.90
6335;DHT22;3200;48.204;11.576;2024-02-26T05:59:23;2.70;99.90
6335;DHT22;3200;48.204;11.576;2024-02-26T06:01:49;2.90;99.90
6335;DHT22;3200;48.204;11.576;2024-02-26T06:04:15;3.10;99.90
6335;DHT22;3200;48.204;11.576;2024-02-26T06:06:44;3.10;99.90
6335;DHT22;3200;48.204;11.576;2024-02-26T06:09:11;2.90;99.90
6335;DHT22;3200;48.204;11.576;2024-02-26T06:11:37;2.80;99.90
6335;DHT22;3200;48.204;11.576;2024-02-26T06:14:03;3.00;99.90
6335;DHT22;3200;48.204;11.576;2024-02-26T06:16:29;2.90;99.90
6335;DHT22;3200;48.204;11.576;2024-02-26T06:18:55;2.90;99.90
6335;DHT22;3200;48.204;11.576;2024-02-26T06:21:22;3.10;99.90
6335;DHT22;3200;48.204;11.576;2024-02-26T06:23:48;3.20;99.90
6335;DHT22;3200;48.204;11.576;2024-02-26T06:26:14;3.20;99.90
6335;DHT22;3200;48.204;11.576;2024-02-26T06:28:40;3.20;99.90
6335;DHT22;3200;48.204;11.576;2024-02-26T06:31:06;3.30;99.90
6335;DHT22;3200;48.204;11.576;2024-02-26T06:33:32;3.40;99.90
6335;DHT22;3200;48.204;11.576;2024-02-26T06:35:58;3.30;99.90
6335;DHT22;3200;48.204;11.576;2024-02-26T06:38:24;3.40;99.90
6335;DHT22;3200;48.204;11.576;2024-02-26T06:40:50;3.50;99.90
6335;DHT22;3200;48.204;11.576;2024-02-26T06:43:16;3.50;99.90
6335;DHT22;3200;48.204;11.576;2024-02-26T06:45:42;3.60;99.90
6335;DHT22;3200;48.204;11.576;2024-02-26T06:48:08;3.70;99.90
6335;DHT22;3200;48.204;11.576;2024-02-26T06:50:33;3.70;99.90
6335;DHT22;3200;48.204;11.576;2024-02-26T06:52:59;3.80;99.90
6335;DHT22;3200;48.204;11.576;2024-02-26T06:55:25;3.90;99.90
6335;DHT22;3200;48.204;11.576;2024-02-26T06:57:51;3.90;99.90
6335;DHT22;3200;48.204;11.576;2024-02-26T07:00:17;3.90;99.90
6335;DHT22;3200;48.204;11.576;2024-02-26T07:02:43;4.00;99.90
6335;DHT22;3200;48.204;11.576;2024-02-26T07:05:09;4.00;99.90
6335;DHT22;3200;48.204;11.576;2024-02-26T07:07:35;4.00;99.90
6335;DHT22;3200;48.204;11.576;2024-02-26T07:10:01;4.10;99.90
6335;DHT22;3200;48.204;11.576;2024-02-26T07:12:30;4.20;99.90
6335;DHT22;3200;48.204;11.576;2024-02-26T07:14:55;4.30;99.90
6335;DHT22;3200;48.204;11.576;2024-02-26T07:17:21;4.30;99.90
6335;DHT22;3200;48.204;11.576;2024-02-26T07:19:47;4.40;99.90
6335;DHT22;3200;48.204;11.576;2024-02-26T07:22:13;4.50;99.90
6335;DHT22;3200;48.204;11.576;2024-02-26T07:24:39;4.50;99.90
6335;DHT22;3200;48.204;11.576;2024-02-26T07:27:05;4.60;99.90
6335;DHT22;3200;48.204;11.576;2024-02-26T07:29:33;4.70;99.90
6335;DHT22;3200;48.204;11.576;2024-02-26T07:31:59;4.80;99.90
6335;DHT22;3200;48.204;11.576;2024-02-26T07:34:25;4.90;99.90
6335;DHT22;3200;48.204;11.576;2024-02-26T07:36:57;5.00;99.90
6335;DHT22;3200;48.204;11.576;2024-02-26T07:39:23;5.10;99.90
6335;DHT22;3200;48.204;11.576;2024-02-26T07:41:49;5.30;99.90
6335;DHT22;3200;48.204;11.576;2024-02-26T07:44:17;5.30;99.90
6335;DHT22;3200;48.204;11.576;2024-02-26T07:46:44;5.40;99.90
6335;DHT22;3200;48.204;11.576;2024-02-26T07:49:10;5.30;99.90
6335;DHT22;3200;48.204;11.576;2024-02-26T07:51:35;5.30;99.90
6335;DHT22;3200;48.204;11.576;2024-02-26T07:54:02;5.10;99.90
6335;DHT22;3200;48.204;11.576;2024-02-26T07:56:27;5.00;99.90
6335;DHT22;3200;48.204;11.576;2024-02-26T07:58:53;5.10;99.90
6335;DHT22;3200;48.204;11.576;2024-02-26T08:01:19;5.20;99.90
6335;DHT22;3200;48.204;11.576;2024-02-26T08:03:45;5.30;99.90
6335;DHT22;3200;48.204;11.576;2024-02-26T08:06:10;5.40;99.90
6335;DHT22;3200;48.204;11.576;2024-02-26T08:08:36;5.40;99.90
6335;DHT22;3200;48.204;11.576;2024-02-26T08:11:03;5.40;99.90
6335;DHT22;3200;48.204;11.576;2024-02-26T08:13:29;5.40;99.90
6335;DHT22;3200;48.204;11.576;2024-02-26T08:15:55;5.60;99.90
6335;DHT22;3200;48.204;11.576;2024-02-26T08:18:20;5.70;99.90
6335;DHT22;3200;48.204;11.576;2024-02-26T08:20:46;6.00;99.90
6335;DHT22;3200;48.204;11.576;2024-02-26T08:23:14;6.20;99.90
6335;DHT22;3200;48.204;11.576;2024-02-26T08:25:40;6.30;99.90
6335;DHT22;3200;48.204;11.576;2024-02-26T08:28:05;6.60;99.90
6335;DHT22;3200;48.204;11.576;2024-02-26T08:30:31;6.60;99.90
6335;DHT22;3200;48.204;11.576;2024-02-26T08:32:57;6.50;99.90
6335;DHT22;3200;48.204;11.576;2024-02-26T08:35:23;6.70;99.90
6335;DHT22;3200;48.204;11.576;2024-02-26T08:37:49;6.80;99.90
6335;DHT22;3200;48.204;11.576;2024-02-26T08:40:15;7.10;99.90
6335;DHT22;3200;48.204;11.576;2024-02-26T08:42:41;7.10;99.90
6335;DHT22;3200;48.204;11.576;2024-02-26T08:45:08;7.10;99.90
6335;DHT22;3200;48.204;11.576;2024-02-26T08:47:34;7.30;99.90
6335;DHT22;3200;48.204;11.576;2024-02-26T08:50:00;7.30;99.90
6335;DHT22;3200;48.204;11.576;2024-02-26T08:52:31;7.30;99.90
6335;DHT22;3200;48.204;11.576;2024-02-26T08:54:58;7.30;99.90
6335;DHT22;3200;48.204;11.576;2024-02-26T08:57:24;7.30;99.90
6335;DHT22;3200;48.204;11.576;2024-02-26T09:00:01;7.30;99.90
6335;DHT22;3200;48.204;11.576;2024-02-26T09:02:27;7.30;99.90
6335;DHT22;3200;48.204;11.576;2024-02-26T09:04:56;7.30;99.90
6335;DHT22;3200;48.204;11.576;2024-02-26T09:07:22;7.20;99.90
6335;DHT22;3200;48.204;11.576;2024-02-26T09:09:48;7.30;99.90
6335;DHT22;3200;48.204;11.576;2024-02-26T09:12:13;7.30;99.90
6335;DHT22;3200;48.204;11.576;2024-02-26T09:14:39;7.40;99.90
6335;DHT22;3200;48.204;11.576;2024-02-26T09:17:05;7.40;99.90
6335;DHT22;3200;48.204;11.576;2024-02-26T09:19:33;7.50;99.90
6335;DHT22;3200;48.204;11.576;2024-02-26T09:21:59;7.50;99.90
6335;DHT22;3200;48.204;11.576;2024-02-26T09:24:26;7.60;99.90
6335;DHT22;3200;48.204;11.576;2024-02-26T09:26:52;7.90;99.90
6335;DHT22;3200;48.204;11.576;2024-02-26T09:29:18;7.80;99.90
6335;DHT22;3200;48.204;11.576;2024-02-26T09:31:44;7.80;99.90
6335;DHT22;3200;48.204;11.576;2024-02-26T09:34:13;7.80;99.90
6335;DHT22;3200;48.204;11.576;2024-02-26T09:36:39;7.90;99.90
6335;DHT22;3200;48.204;11.576;2024-02-26T09:39:05;7.90;99.90
6335;DHT22;3200;48.204;11.576;2024-02-26T09:41:33;7.80;99.90
6335;DHT22;3200;48.204;11.576;2024-02-26T09:43:58;8.10;99.90
6335;DHT22;3200;48.204;11.576;2024-02-26T09:46:30;8.20;99.90
6335;DHT22;3200;48.204;11.576;2024-02-26T09:48:56;8.40;99.90
6335;DHT22;3200;48.204;11.576;2024-02-26T09:51:23;8.30;99.90
6335;DHT22;3200;48.204;11.576;2024-02-26T09:53:53;8.30;99.90
6335;DHT22;3200;48.204;11.576;2024-02-26T09:56:19;8.30;99.90
6335;DHT22;3200;48.204;11.576;2024-02-26T09:58:46;8.30;99.90
6335;DHT22;3200;48.204;11.576;2024-02-26T10:01:18;8.70;99.90
6335;DHT22;3200;48.204;11.576;2024-02-26T10:03:49;8.90;99.90
6335;DHT22;3200;48.204;11.576;2024-02-26T10:06:21;8.80;99.90
6335;DHT22;3200;48.204;11.576;2024-02-26T10:08:47;8.90;99.90
6335;DHT22;3200;48.204;11.576;2024-02-26T10:11:15;8.80;99.90
6335;DHT22;3200;48.204;11.576;2024-02-26T10:13:41;8.80;99.90
6335;DHT22;3200;48.204;11.576;2024-02-26T10:16:07;8.90;99.90
6335;DHT22;3200;48.204;11.576;2024-02-26T10:21:16;8.60;99.90
6335;DHT22;3200;48.204;11.576;2024-02-26T10:23:45;8.70;99.90
6335;DHT22;3200;48.204;11.576;2024-02-26T10:26:14;8.80;99.90
6335;DHT22;3200;48.204;11.576;2024-02-26T10:28:45;8.90;99.90
6335;DHT22;3200;48.204;11.576;2024-02-26T10:31:14;8.90;99.90
6335;DHT22;3200;48.204;11.576;2024-02-26T10:37:28;8.70;99.90
6335;DHT22;3200;48.204;11.576;2024-02-26T10:39:56;9.00;99.90
6335;DHT22;3200;48.204;11.576;2024-02-26T10:42:22;9.10;99.90
6335;DHT22;3200;48.204;11.576;2024-02-26T10:44:48;9.00;99.90
6335;DHT22;3200;48.204;11.576;2024-02-26T10:47:14;8.90;99.90
6335;DHT22;3200;48.204;11.576;2024-02-26T10:49:48;9.00;99.90
6335;DHT22;3200;48.204;11.576;2024-02-26T10:52:15;9.00;99.90
6335;DHT22;3200;48.204;11.576;2024-02-26T10:54:47;9.30;99.90
6335;DHT22;3200;48.204;11.576;2024-02-26T10:57:14;9.40;99.90
6335;DHT22;3200;48.204;11.576;2024-02-26T10:59:42;9.50;99.90
6335;DHT22;3200;48.204;11.576;2024-02-26T11:02:10;9.50;99.90
6335;DHT22;3200;48.204;11.576;2024-02-26T11:04:38;9.60;99.90
6335;DHT22;3200;48.204;11.576;2024-02-26T11:07:05;9.70;99.90
6335;DHT22;3200;48.204;11.576;2024-02-26T11:09:31;9.80;99.90
6335;DHT22;3200;48.204;11.576;2024-02-26T11:11:58;9.80;99.90
6335;DHT22;3200;48.204;11.576;2024-02-26T11:14:26;9.80;99.20
6335;DHT22;3200;48.204;11.576;2024-02-26T11:16:56;9.70;99.80
6335;DHT22;3200;48.204;11.576;2024-02-26T11:19:24;9.80;99.50
6335;DHT22;3200;48.204;11.576;2024-02-26T11:21:52;9.90;99.70
6335;DHT22;3200;48.204;11.576;2024-02-26T11:24:18;10.00;99.30
6335;DHT22;3200;48.204;11.576;2024-02-26T11:26:55;10.10;99.40
6335;DHT22;3200;48.204;11.576;2024-02-26T11:29:29;10.40;99.70
6335;DHT22;3200;48.204;11.576;2024-02-26T11:32:01;10.50;98.70
6335;DHT22;3200;48.204;11.576;2024-02-26T11:34:27;10.50;98.70
6335;DHT22;3200;48.204;11.576;2024-02-26T11:36:54;10.70;99.10
6335;DHT22;3200;48.204;11.576;2024-02-26T11:39:22;10.70;98.50
6335;DHT22;3200;48.204;11.576;2024-02-26T11:41:50;10.70;98.90
6335;DHT22;3200;48.204;11.576;2024-02-26T11:44:28;10.90;98.70
6335;DHT22;3200;48.204;11.576;2024-02-26T11:46:56;10.80;98.60
6335;DHT22;3200;48.204;11.576;2024-02-26T11:51:54;10.90;98.30
6335;DHT22;3200;48.204;11.576;2024-02-26T11:54:48;11.00;98.10
6335;DHT22;3200;48.204;11.576;2024-02-26T12:02:47;10.80;98.20
6335;DHT22;3200;48.204;11.576;2024-02-26T12:05:20;10.90;98.30
6335;DHT22;3200;48.204;11.576;2024-02-26T12:08:04;11.00;98.30
6335;DHT22;3200;48.204;11.576;2024-02-26T12:10:34;10.90;97.80
6335;DHT22;3200;48.204;11.576;2024-02-26T12:13:12;10.80;98.00
6335;DHT22;3200;48.204;11.576;2024-02-26T12:15:41;10.70;97.10
6335;DHT22;3200;48.204;11.576;2024-02-26T12:18:17;10.60;96.70
6335;DHT22;3200;48.204;11.576;2024-02-26T12:20:44;10.60;96.70
6335;DHT22;3200;48.204;11.576;2024-02-26T12:23:14;10.50;96.70
6335;DHT22;3200;48.204;11.576;2024-02-26T12:25:43;10.60;96.00
6335;DHT22;3200;48.204;11.576;2024-02-26T12:28:10;10.60;95.60
6335;DHT22;3200;48.204;11.576;2024-02-26T12:30:35;10.70;95.90
6335;DHT22;3200;48.204;11.576;2024-02-26T12:33:02;10.90;96.00
6335;DHT22;3200;48.204;11.576;2024-02-26T12:35:28;11.00;95.30
6335;DHT22;3200;48.204;11.576;2024-02-26T12:37:58;10.90;95.60
6335;DHT22;3200;48.204;11.576;2024-02-26T12:40:25;11.00;96.10
6335;DHT22;3200;48.204;11.576;2024-02-26T12:42:53;10.80;94.90
6335;DHT22;3200;48.204;11.576;2024-02-26T12:45:21;10.70;94.90
6335;DHT22;3200;48.204;11.576;2024-02-26T12:47:47;10.80;95.00
6335;DHT22;3200;48.204;11.576;2024-02-26T12:50:15;10.90;93.90
6335;DHT22;3200;48.204;11.576;2024-02-26T12:52:43;11.00;93.90
6335;DHT22;3200;48.204;11.576;2024-02-26T12:55:14;11.10;94.90
6335;DHT22;3200;48.204;11.576;2024-02-26T12:57:43;11.10;94.70
6335;DHT22;3200;48.204;11.576;2024-02-26T13:00:16;11.20;94.30
6335;DHT22;3200;48.204;11.576;2024-02-26T13:02:45;11.20;94.00
6335;DHT22;3200;48.204;11.576;2024-02-26T13:05:13;11.20;94.20
6335;DHT22;3200;48.204;11.576;2024-02-26T13:12:32;11.10;94.40
6335;DHT22;3200;48.204;11.576;2024-02-26T13:15:02;11.10;94.10
6335;DHT22;3200;48.204;11.576;2024-02-26T13:17:32;11.00;95.10
6335;DHT22;3200;48.204;11.576;2024-02-26T13:19:58;10.90;95.50
6335;DHT22;3200;48.204;11.576;2024-02-26T13:22:24;11.00;95.40
6335;DHT22;3200;48.204;11.576;2024-02-26T13:24:56;10.90;95.30
6335;DHT22;3200;48.204;11.576;2024-02-26T13:27:23;11.00;95.00
6335;DHT22;3200;48.204;11.576;2024-02-26T13:30:25;11.00;95.60
6335;DHT22;3200;48.204;11.576;2024-02-26T13:32:53;10.80;95.60
6335;DHT22;3200;48.204;11.576;2024-02-26T13:35:19;10.70;96.00
6335;DHT22;3200;48.204;11.576;2024-02-26T13:37:44;10.70;96.40
6335;DHT22;3200;48.204;11.576;2024-02-26T13:40:11;10.70;96.30
6335;DHT22;3200;48.204;11.576;2024-02-26T13:42:37;10.80;96.40
6335;DHT22;3200;48.204;11.576;2024-02-26T13:45:05;10.70;96.20
6335;DHT22;3200;48.204;11.576;2024-02-26T13:47:34;10.70;96.20
6335;DHT22;3200;48.204;11.576;2024-02-26T13:50:01;10.70;96.10
6335;DHT22;3200;48.204;11.576;2024-02-26T13:52:27;10.70;95.50
6335;DHT22;3200;48.204;11.576;2024-02-26T13:54:53;10.70;95.80
6335;DHT22;3200;48.204;11.576;2024-02-26T13:57:19;10.70;95.50
6335;DHT22;3200;48.204;11.576;2024-02-26T13:59:46;10.70;95.10
6335;DHT22;3200;48.204;11.576;2024-02-26T14:02:12;10.80;94.90
6335;DHT22;3200;48.204;11.576;2024-02-26T14:04:38;10.70;94.70
6335;DHT22;3200;48.204;11.576;2024-02-26T14:07:04;10.80;95.00
6335;DHT22;3200;48.204;11.576;2024-02-26T14:09:31;10.80;95.30
6335;DHT22;3200;48.204;11.576;2024-02-26T14:11:58;10.70;95.40
6335;DHT22;3200;48.204;11.576;2024-02-26T14:14:24;10.70;95.60
6335;DHT22;3200;48.204;11.576;2024-02-26T14:16:51;10.90;95.20
6335;DHT22;3200;48.204;11.576;2024-02-26T14:19:17;10.90;95.10
6335;DHT22;3200;48.204;11.576;2024-02-26T14:21:43;11.00;95.30
6335;DHT22;3200;48.204;11.576;2024-02-26T14:24:09;10.90;95.10
6335;DHT22;3200;48.204;11.576;2024-02-26T14:26:35;10.80;94.80
6335;DHT22;3200;48.204;11.576;2024-02-26T14:29:01;10.70;94.70
6335;DHT22;3200;48.204;11.576;2024-02-26T14:31:26;10.80;94.90
6335;DHT22;3200;48.204;11.576;2024-02-26T14:33:52;10.80;95.00
6335;DHT22;3200;48.204;11.576;2024-02-26T14:36:20;10.80;94.50
6335;DHT22;3200;48.204;11.576;2024-02-26T14:38:47;10.80;94.60
6335;DHT22;3200;48.204;11.576;2024-02-26T14:41:14;10.90;95.50
6335;DHT22;3200;48.204;11.576;2024-02-26T14:43:39;10.90;95.50
6335;DHT22;3200;48.204;11.576;2024-02-26T14:46:05;10.90;95.20
6335;DHT22;3200;48.204;11.576;2024-02-26T14:48:31;10.80;96.00
6335;DHT22;3200;48.204;11.576;2024-02-26T14:50:57;10.80;96.60
6335;DHT22;3200;48.204;11.576;2024-02-26T14:53:24;10.70;96.80
6335;DHT22;3200;48.204;11.576;2024-02-26T14:55:50;10.70;96.80
6335;DHT22;3200;48.204;11.576;2024-02-26T14:58:16;10.60;96.40
6335;DHT22;3200;48.204;11.576;2024-02-26T15:00:42;10.60;96.80
6335;DHT22;3200;48.204;11.576;2024-02-26T15:03:08;10.50;97.00
6335;DHT22;3200;48.204;11.576;2024-02-26T15:05:34;10.50;97.40
6335;DHT22;3200;48.204;11.576;2024-02-26T15:08:01;10.40;97.70
6335;DHT22;3200;48.204;11.576;2024-02-26T15:10:28;10.40;98.00
6335;DHT22;3200;48.204;11.576;2024-02-26T15:12:54;10.40;98.70
6335;DHT22;3200;48.204;11.576;2024-02-26T15:15:24;10.30;99.20
6335;DHT22;3200;48.204;11.576;2024-02-26T15:17:50;10.20;99.60
6335;DHT22;3200;48.204;11.576;2024-02-26T15:20:16;10.20;99.90
6335;DHT22;3200;48.204;11.576;2024-02-26T15:22:42;10.10;99.90
6335;DHT22;3200;48.204;11.576;2024-02-26T15:25:09;10.10;99.90
6335;DHT22;3200;48.204;11.576;2024-02-26T15:27:35;10.00;99.90
6335;DHT22;3200;48.204;11.576;2024-02-26T15:30:01;10.00;99.90
6335;DHT22;3200;48.204;11.576;2024-02-26T15:32:27;9.90;99.90
6335;DHT22;3200;48.204;11.576;2024-02-26T15:34:54;9.90;99.90
6335;DHT22;3200;48.204;11.576;2024-02-26T15:37:20;9.90;99.90
6335;DHT22;3200;48.204;11.576;2024-02-26T15:39:47;9.80;99.90
6335;DHT22;3200;48.204;11.576;2024-02-26T15:42:13;9.80;99.90
6335;DHT22;3200;48.204;11.576;2024-02-26T15:44:40;9.70;99.90
6335;DHT22;3200;48.204;11.576;2024-02-26T15:47:06;9.80;99.90
6335;DHT22;3200;48.204;11.576;2024-02-26T15:49:32;9.70;99.90
6335;DHT22;3200;48.204;11.576;2024-02-26T15:51:59;9.70;99.90
6335;DHT22;3200;48.204;11.576;2024-02-26T15:54:25;9.70;99.90
6335;DHT22;3200;48.204;11.576;2024-02-26T15:56:51;9.60;99.90
6335;DHT22;3200;48.204;11.576;2024-02-26T15:59:17;9.70;99.90
6335;DHT22;3200;48.204;11.576;2024-02-26T16:01:43;9.60;99.90
6335;DHT22;3200;48.204;11.576;2024-02-26T16:04:10;9.70;99.90
6335;DHT22;3200;48.204;11.576;2024-02-26T16:06:37;9.70;99.90
6335;DHT22;3200;48.204;11.576;2024-02-26T16:09:07;9.60;99.90
6335;DHT22;3200;48.204;11.576;2024-02-26T16:11:33;9.60;99.90
6335;DHT22;3200;48.204;11.576;2024-02-26T16:14:21;9.60;99.90